createdAt,value
2018-04-30T00:00:58.364Z,14.70
2018-04-30T00:01:58.329Z,15.60
2018-04-30T00:02:59.046Z,16.00
2018-04-30T00:03:58.340Z,15.90
2018-04-30T00:04:58.351Z,14.70
2018-04-30T00:05:58.350Z,15.70
2018-04-30T00:06:58.348Z,15.50
2018-04-30T00:07:58.351Z,15.10
2018-04-30T00:08:58.349Z,15.50
2018-04-30T00:09:58.354Z,15.80
2018-04-30T00:10:58.355Z,15.90
2018-04-30T00:11:58.427Z,16.10
2018-04-30T00:12:58.371Z,15.10
2018-04-30T00:13:58.375Z,15.50
2018-04-30T00:14:58.379Z,15.30
2018-04-30T00:15:58.379Z,15.90
2018-04-30T00:16:58.398Z,16.00
2018-04-30T00:17:58.387Z,16.50
2018-04-30T00:18:58.394Z,17.10
2018-04-30T00:19:58.385Z,17.10
2018-04-30T00:20:58.391Z,18.60
2018-04-30T00:21:59.055Z,18.20
2018-04-30T00:22:58.398Z,19.70
2018-04-30T00:23:58.404Z,20.70
2018-04-30T00:24:58.401Z,20.70
2018-04-30T00:25:58.402Z,22.20
2018-04-30T00:26:59.060Z,19.90
2018-04-30T00:27:58.410Z,21.10
2018-04-30T00:28:58.409Z,21.60
2018-04-30T00:29:58.422Z,22.70
2018-04-30T00:30:59.165Z,23.70
2018-04-30T00:31:58.421Z,24.10
2018-04-30T00:32:58.432Z,24.70
2018-04-30T00:33:58.415Z,27.00
2018-04-30T00:34:58.462Z,28.80
2018-04-30T00:35:58.428Z,29.20
2018-04-30T00:36:58.435Z,30.60
2018-04-30T00:37:58.439Z,29.70
2018-04-30T00:38:58.431Z,31.50
2018-04-30T00:39:59.059Z,31.30
2018-04-30T00:40:58.436Z,31.60
2018-04-30T00:41:58.446Z,32.90
2018-04-30T00:42:58.452Z,34.00
2018-04-30T00:43:58.444Z,33.10
2018-04-30T00:44:58.459Z,35.20
2018-04-30T00:45:58.464Z,36.60
2018-04-30T00:46:58.448Z,39.90
2018-04-30T00:47:58.453Z,40.90
2018-04-30T00:48:58.463Z,40.90
2018-04-30T00:49:58.473Z,41.60
2018-04-30T00:50:58.472Z,42.60
2018-04-30T00:51:58.473Z,43.00
2018-04-30T00:52:58.485Z,44.20
2018-04-30T00:53:58.478Z,43.90
2018-04-30T00:54:58.477Z,45.80
2018-04-30T00:55:58.489Z,44.30
2018-04-30T00:56:58.478Z,44.50
2018-04-30T00:57:58.493Z,45.00
2018-04-30T00:58:58.486Z,46.20
2018-04-30T00:59:58.496Z,48.20
2018-04-30T01:00:58.527Z,48.50
2018-04-30T01:01:58.493Z,50.10
2018-04-30T01:02:58.514Z,49.30
2018-04-30T01:03:58.495Z,49.20
2018-04-30T01:04:58.501Z,50.70
2018-04-30T01:05:58.511Z,52.70
2018-04-30T01:06:58.508Z,51.70
2018-04-30T01:07:58.508Z,51.70
2018-04-30T01:08:58.515Z,48.30
2018-04-30T01:09:58.524Z,51.00
2018-04-30T01:10:58.529Z,52.10
2018-04-30T01:11:58.525Z,52.50
2018-04-30T01:12:58.526Z,52.00
2018-04-30T01:13:58.529Z,52.20
2018-04-30T01:14:58.528Z,53.10
2018-04-30T01:15:59.073Z,50.00
2018-04-30T01:16:58.538Z,51.90
2018-04-30T01:17:58.536Z,52.40
2018-04-30T01:18:58.540Z,53.60
2018-04-30T01:19:58.535Z,53.20
2018-04-30T01:20:58.539Z,50.40
2018-04-30T01:21:58.545Z,52.10
2018-04-30T01:22:58.545Z,52.90
2018-04-30T01:23:58.591Z,50.90
2018-04-30T01:24:58.540Z,50.80
2018-04-30T01:25:58.552Z,51.80
2018-04-30T01:26:58.564Z,51.80
2018-04-30T01:27:58.566Z,50.50
2018-04-30T01:28:58.563Z,50.80
2018-04-30T01:29:58.569Z,53.70
2018-04-30T01:30:58.561Z,52.10
2018-04-30T01:31:58.578Z,53.50
2018-04-30T01:32:58.572Z,53.70
2018-04-30T01:33:59.076Z,55.90
2018-04-30T01:34:58.594Z,51.90
2018-04-30T01:35:58.578Z,53.60
2018-04-30T01:36:58.568Z,54.60
2018-04-30T01:37:58.579Z,54.40
2018-04-30T01:38:58.579Z,53.40
2018-04-30T01:39:58.605Z,52.60
2018-04-30T01:40:58.594Z,49.80
2018-04-30T01:41:58.594Z,51.40
2018-04-30T01:42:58.594Z,52.20
2018-04-30T01:43:58.613Z,50.10
2018-04-30T01:44:58.598Z,51.90
2018-04-30T01:45:58.621Z,50.50
2018-04-30T01:46:58.627Z,52.80
2018-04-30T01:47:58.603Z,52.00
2018-04-30T01:48:58.595Z,51.60
2018-04-30T01:49:58.608Z,51.50
2018-04-30T01:50:58.632Z,52.60
2018-04-30T01:51:58.626Z,54.00
2018-04-30T01:52:58.683Z,54.10
2018-04-30T01:53:58.623Z,51.60
2018-04-30T01:54:58.644Z,51.60
2018-04-30T01:55:58.639Z,52.50
2018-04-30T01:56:58.643Z,53.80
2018-04-30T01:57:58.619Z,56.40
2018-04-30T01:58:58.623Z,53.90
2018-04-30T01:59:58.632Z,54.70
2018-04-30T02:00:58.635Z,54.10
2018-04-30T02:01:58.659Z,54.20
2018-04-30T02:02:58.641Z,56.60
2018-04-30T02:03:58.672Z,56.90
2018-04-30T02:04:58.676Z,58.30
2018-04-30T02:05:58.688Z,55.20
2018-04-30T02:06:58.667Z,52.70
2018-04-30T02:07:58.668Z,55.50
2018-04-30T02:08:58.666Z,56.00
2018-04-30T02:09:58.639Z,55.20
2018-04-30T02:10:58.650Z,56.10
2018-04-30T02:11:58.656Z,56.50
2018-04-30T02:12:58.694Z,57.00
2018-04-30T02:13:58.667Z,54.00
2018-04-30T02:14:58.662Z,56.30
2018-04-30T02:16:26.655Z,57.50
2018-04-30T02:16:58.676Z,56.50
2018-04-30T02:17:58.680Z,57.50
2018-04-30T02:18:58.672Z,57.60
2018-04-30T02:21:30.815Z,59.60
2018-04-30T02:22:30.791Z,56.30
2018-04-30T02:23:30.785Z,57.90
2018-04-30T02:24:30.802Z,56.40
2018-04-30T02:25:30.791Z,56.70
2018-04-30T02:26:30.785Z,57.70
2018-04-30T02:27:30.796Z,55.90
2018-04-30T02:28:30.797Z,57.00
2018-04-30T02:29:32.766Z,57.50
2018-04-30T02:30:30.804Z,54.10
2018-04-30T02:31:32.270Z,56.20
2018-04-30T02:32:30.853Z,55.00
2018-04-30T02:34:30.819Z,57.50
2018-04-30T02:35:30.809Z,58.20
2018-04-30T02:36:30.819Z,57.50
2018-04-30T02:37:30.814Z,58.10
2018-04-30T02:38:30.822Z,57.30
2018-04-30T02:39:30.824Z,57.00
2018-04-30T02:40:30.827Z,58.50
2018-04-30T02:41:30.827Z,55.40
2018-04-30T02:42:30.828Z,56.30
2018-04-30T02:43:30.822Z,56.40
2018-04-30T02:44:30.835Z,54.60
2018-04-30T02:45:31.783Z,52.90
2018-04-30T02:46:30.895Z,58.10
2018-04-30T02:47:30.839Z,55.10
2018-04-30T02:48:30.832Z,54.80
2018-04-30T02:49:30.836Z,56.80
2018-04-30T02:50:30.901Z,58.50
2018-04-30T02:51:30.846Z,58.40
2018-04-30T02:52:30.850Z,58.80
2018-04-30T02:53:30.849Z,60.30
2018-04-30T02:54:30.860Z,56.70
2018-04-30T02:55:30.862Z,58.30
2018-04-30T02:56:30.870Z,57.00
2018-04-30T02:57:30.868Z,57.40
2018-04-30T02:58:30.864Z,57.50
2018-04-30T02:59:30.874Z,57.40
2018-04-30T03:00:30.855Z,57.80
2018-04-30T03:01:30.871Z,56.60
2018-04-30T03:02:30.864Z,57.80
2018-04-30T03:03:30.885Z,56.40
2018-04-30T03:04:30.881Z,57.70
2018-04-30T03:05:30.877Z,56.60
2018-04-30T03:06:30.874Z,58.20
2018-04-30T03:07:30.881Z,60.20
2018-04-30T03:08:30.897Z,64.00
2018-04-30T03:09:30.890Z,63.50
2018-04-30T03:10:30.887Z,61.60
2018-04-30T03:11:30.886Z,60.30
2018-04-30T03:12:30.897Z,58.80
2018-04-30T03:13:30.902Z,57.30
2018-04-30T03:14:30.901Z,57.10
2018-04-30T03:15:30.914Z,58.20
2018-04-30T03:16:30.912Z,60.30
2018-04-30T03:17:30.909Z,59.70
2018-04-30T03:18:30.926Z,59.80
2018-04-30T03:19:30.924Z,58.30
2018-04-30T03:20:30.913Z,59.80
2018-04-30T03:21:30.945Z,61.60
2018-04-30T03:22:30.909Z,58.20
2018-04-30T03:23:30.918Z,58.50
2018-04-30T03:24:30.918Z,58.70
2018-04-30T03:25:30.971Z,56.10
2018-04-30T03:26:30.924Z,55.90
2018-04-30T03:27:31.872Z,58.30
2018-04-30T03:28:30.918Z,57.70
2018-04-30T03:29:30.922Z,59.30
2018-04-30T03:30:30.947Z,59.60
2018-04-30T03:31:30.929Z,56.90
2018-04-30T03:32:30.934Z,56.60
2018-04-30T03:33:30.955Z,57.10
2018-04-30T03:34:30.932Z,55.80
2018-04-30T03:35:30.932Z,59.20
2018-04-30T03:36:30.950Z,59.30
2018-04-30T03:37:30.962Z,59.70
2018-04-30T03:38:31.034Z,56.60
2018-04-30T03:39:30.954Z,55.50
2018-04-30T03:40:30.973Z,60.20
2018-04-30T03:41:30.951Z,61.10
2018-04-30T03:42:30.948Z,61.40
2018-04-30T03:43:30.955Z,60.50
2018-04-30T03:44:30.957Z,63.30
2018-04-30T03:45:30.970Z,61.00
2018-04-30T03:46:30.957Z,61.70
2018-04-30T03:47:30.965Z,61.80
2018-04-30T03:48:30.957Z,62.60
2018-04-30T03:49:30.980Z,62.10
2018-04-30T03:50:30.974Z,59.90
2018-04-30T03:51:30.972Z,57.20
2018-04-30T03:52:30.973Z,60.60
2018-04-30T03:53:30.970Z,63.00
2018-04-30T03:54:30.977Z,64.70
2018-04-30T03:55:31.013Z,63.60
2018-04-30T03:56:30.993Z,66.90
2018-04-30T03:57:30.987Z,65.60
2018-04-30T03:58:31.003Z,67.00
2018-04-30T03:59:31.003Z,63.70
2018-04-30T04:00:30.992Z,64.10
2018-04-30T04:01:30.989Z,63.60
2018-04-30T04:02:31.005Z,66.20
2018-04-30T04:03:31.019Z,67.50
2018-04-30T04:04:31.000Z,64.00
2018-04-30T04:05:31.009Z,65.90
2018-04-30T04:06:31.000Z,63.40
2018-04-30T04:07:31.006Z,65.10
2018-04-30T04:08:31.043Z,66.50
2018-04-30T04:09:31.015Z,64.20
2018-04-30T04:10:31.004Z,68.10
2018-04-30T04:11:31.019Z,67.90
2018-04-30T04:12:31.009Z,67.30
2018-04-30T04:13:31.031Z,65.30
2018-04-30T04:14:31.016Z,66.90
2018-04-30T04:15:31.016Z,68.10
2018-04-30T04:16:31.024Z,67.30
2018-04-30T04:17:31.029Z,69.80
2018-04-30T04:18:31.033Z,67.20
2018-04-30T04:19:31.795Z,64.90
2018-04-30T04:20:31.032Z,69.60
2018-04-30T04:21:31.045Z,66.50
2018-04-30T04:22:31.043Z,68.20
2018-04-30T04:23:31.043Z,67.20
2018-04-30T04:24:31.050Z,67.60
2018-04-30T04:25:31.043Z,68.90
2018-04-30T04:26:31.043Z,66.30
2018-04-30T04:27:31.054Z,67.40
2018-04-30T04:28:31.042Z,70.60
2018-04-30T04:29:31.061Z,69.90
2018-04-30T04:30:31.074Z,68.20
2018-04-30T04:31:31.065Z,67.60
2018-04-30T04:32:31.181Z,70.10
2018-04-30T04:33:31.071Z,70.60
2018-04-30T04:34:31.063Z,69.60
2018-04-30T04:35:31.072Z,69.70
2018-04-30T04:36:31.077Z,68.90
2018-04-30T04:37:31.080Z,70.90
2018-04-30T04:38:31.070Z,71.80
2018-04-30T04:39:31.070Z,70.60
2018-04-30T04:40:31.072Z,71.90
2018-04-30T04:41:31.078Z,70.60
2018-04-30T04:42:31.084Z,70.40
2018-04-30T04:43:31.080Z,70.00
2018-04-30T04:44:31.085Z,73.40
2018-04-30T04:45:31.173Z,71.00
2018-04-30T04:46:31.085Z,70.60
2018-04-30T04:47:31.102Z,71.80
2018-04-30T04:48:31.095Z,71.70
2018-04-30T04:49:31.112Z,71.80
2018-04-30T04:50:31.092Z,70.30
2018-04-30T04:51:31.111Z,69.20
2018-04-30T04:52:31.112Z,70.10
2018-04-30T04:53:31.101Z,69.70
2018-04-30T04:54:31.097Z,72.10
2018-04-30T04:55:31.096Z,69.50
2018-04-30T04:56:31.106Z,71.70
2018-04-30T04:57:31.109Z,67.40
2018-04-30T04:58:31.117Z,69.10
2018-04-30T04:59:31.114Z,69.40
2018-04-30T05:00:31.132Z,70.80
2018-04-30T05:01:31.116Z,72.30
2018-04-30T05:02:31.113Z,69.80
2018-04-30T05:03:31.120Z,71.50
2018-04-30T05:04:31.128Z,70.90
2018-04-30T05:05:31.123Z,68.50
2018-04-30T05:06:31.139Z,66.70
2018-04-30T05:07:31.128Z,69.50
2018-04-30T05:08:31.146Z,69.30
2018-04-30T05:09:31.134Z,70.00
2018-04-30T05:10:31.137Z,70.90
2018-04-30T05:11:31.140Z,69.50
2018-04-30T05:12:31.153Z,69.40
2018-04-30T05:13:31.147Z,71.80
2018-04-30T05:14:31.146Z,70.10
2018-04-30T05:15:31.147Z,70.60
2018-04-30T05:16:31.194Z,73.10
2018-04-30T05:17:31.147Z,70.70
2018-04-30T05:18:31.152Z,70.20
2018-04-30T05:19:31.159Z,71.10
2018-04-30T05:20:31.160Z,70.70
2018-04-30T05:21:31.167Z,72.10
2018-04-30T05:22:31.177Z,73.10
2018-04-30T05:23:31.160Z,75.30
2018-04-30T05:24:31.168Z,72.80
2018-04-30T05:25:31.164Z,74.50
2018-04-30T05:26:31.816Z,78.50
2018-04-30T05:27:31.176Z,73.90
2018-04-30T05:28:31.222Z,72.30
2018-04-30T05:29:31.189Z,77.10
2018-04-30T05:30:31.189Z,76.40
2018-04-30T05:31:31.195Z,72.10
2018-04-30T05:32:31.178Z,75.50
2018-04-30T05:33:31.186Z,74.90
2018-04-30T05:34:31.184Z,76.90
2018-04-30T05:35:31.200Z,75.40
2018-04-30T05:36:31.201Z,72.30
2018-04-30T05:37:31.196Z,73.80
2018-04-30T05:38:31.239Z,74.60
2018-04-30T05:39:31.327Z,78.50
2018-04-30T05:40:31.217Z,74.40
2018-04-30T05:41:31.208Z,75.40
2018-04-30T05:42:31.234Z,74.00
2018-04-30T05:43:31.211Z,75.20
2018-04-30T05:44:31.203Z,76.10
2018-04-30T05:45:31.217Z,71.50
2018-04-30T05:46:31.230Z,75.20
2018-04-30T05:47:31.227Z,80.10
2018-04-30T05:48:31.265Z,80.60
2018-04-30T05:49:31.219Z,73.10
2018-04-30T05:50:31.232Z,73.70
2018-04-30T05:51:31.234Z,72.50
2018-04-30T05:52:31.230Z,72.40
2018-04-30T05:53:31.257Z,73.60
2018-04-30T05:54:31.244Z,73.60
2018-04-30T05:55:31.239Z,69.60
2018-04-30T05:56:31.308Z,73.20
2018-04-30T05:57:31.822Z,70.70
2018-04-30T05:58:31.234Z,71.90
2018-04-30T05:59:31.237Z,71.00
2018-04-30T06:00:31.290Z,69.70
2018-04-30T06:01:31.269Z,70.50
2018-04-30T06:02:31.263Z,71.60
2018-04-30T06:03:31.251Z,70.70
2018-04-30T06:04:31.256Z,71.90
2018-04-30T06:05:31.265Z,72.30
2018-04-30T06:06:31.259Z,72.00
2018-04-30T06:07:31.256Z,73.50
2018-04-30T06:08:31.261Z,72.30
2018-04-30T06:09:31.276Z,71.40
2018-04-30T06:10:31.326Z,72.70
2018-04-30T06:11:31.266Z,74.90
2018-04-30T06:12:31.343Z,74.20
2018-04-30T06:13:31.274Z,73.60
2018-04-30T06:14:31.275Z,75.30
2018-04-30T06:15:31.297Z,75.20
2018-04-30T06:16:31.277Z,72.30
2018-04-30T06:17:31.353Z,74.90
2018-04-30T06:18:31.301Z,73.40
2018-04-30T06:19:31.285Z,71.00
2018-04-30T06:20:31.424Z,73.30
2018-04-30T06:21:31.289Z,72.30
2018-04-30T06:22:31.285Z,74.40
2018-04-30T06:23:31.308Z,74.50
2018-04-30T06:24:31.325Z,73.50
2018-04-30T06:25:31.302Z,73.00
2018-04-30T06:26:31.320Z,74.10
2018-04-30T06:27:31.341Z,70.10
2018-04-30T06:28:31.324Z,71.50
2018-04-30T06:29:31.317Z,72.20
2018-04-30T06:30:31.832Z,71.40
2018-04-30T06:31:31.338Z,70.60
2018-04-30T06:32:31.373Z,70.50
2018-04-30T06:33:31.323Z,69.20
2018-04-30T06:34:32.045Z,64.20
2018-04-30T06:35:31.329Z,67.70
2018-04-30T06:36:31.345Z,62.80
2018-04-30T06:37:31.336Z,66.20
2018-04-30T06:38:31.335Z,66.40
2018-04-30T06:39:31.328Z,66.30
2018-04-30T06:40:31.348Z,64.60
2018-04-30T06:41:31.356Z,61.80
2018-04-30T06:42:31.343Z,59.20
2018-04-30T06:43:31.406Z,58.20
2018-04-30T06:44:31.370Z,60.80
2018-04-30T06:45:31.349Z,63.70
2018-04-30T06:46:31.395Z,61.00
2018-04-30T06:47:31.460Z,60.90
2018-04-30T06:48:31.840Z,61.20
2018-04-30T06:49:31.407Z,61.10
2018-04-30T06:50:31.367Z,59.00
2018-04-30T06:51:31.371Z,58.20
2018-04-30T06:52:31.371Z,64.30
2018-04-30T06:53:31.436Z,58.90
2018-04-30T06:54:31.402Z,58.40
2018-04-30T06:55:31.531Z,55.80
2018-04-30T06:56:31.370Z,57.00
2018-04-30T06:57:31.378Z,56.00
2018-04-30T06:58:31.383Z,55.60
2018-04-30T06:59:31.384Z,55.30
2018-04-30T07:00:31.396Z,53.00
2018-04-30T07:01:31.566Z,53.60
2018-04-30T07:02:31.399Z,51.40
2018-04-30T07:03:31.420Z,52.50
2018-04-30T07:04:31.419Z,50.30
2018-04-30T07:05:31.398Z,48.60
2018-04-30T07:06:31.541Z,49.60
2018-04-30T07:07:31.761Z,47.10
2018-04-30T07:08:31.930Z,50.10
2018-04-30T07:09:31.571Z,49.10
2018-04-30T07:10:31.422Z,49.10
2018-04-30T07:11:31.450Z,48.10
2018-04-30T07:12:31.473Z,49.70
2018-04-30T07:13:31.528Z,47.40
2018-04-30T07:14:32.356Z,44.40
2018-04-30T07:15:31.420Z,42.40
2018-04-30T07:16:31.467Z,38.40
2018-04-30T07:17:31.418Z,38.30
2018-04-30T07:18:31.732Z,38.40
2018-04-30T07:19:32.357Z,36.90
2018-04-30T07:20:31.525Z,36.00
2018-04-30T07:21:31.463Z,36.20
2018-04-30T07:22:31.477Z,32.30
2018-04-30T07:23:31.545Z,32.30
2018-04-30T07:24:31.495Z,29.40
2018-04-30T07:25:31.454Z,31.40
2018-04-30T07:26:31.480Z,28.20
2018-04-30T07:27:31.524Z,26.50
2018-04-30T07:28:31.519Z,24.50
2018-04-30T07:29:31.497Z,26.60
2018-04-30T07:30:31.506Z,26.60
2018-04-30T07:31:31.527Z,24.10
2018-04-30T07:32:31.595Z,23.70
2018-04-30T07:33:31.475Z,25.50
2018-04-30T07:34:31.474Z,23.80
2018-04-30T07:35:31.527Z,21.30
2018-04-30T07:36:31.527Z,20.80
2018-04-30T07:37:31.536Z,21.80
2018-04-30T07:38:31.527Z,20.80
2018-04-30T07:39:31.512Z,20.10
2018-04-30T07:40:31.572Z,17.80
2018-04-30T07:41:31.510Z,17.50
2018-04-30T07:42:31.488Z,17.20
2018-04-30T07:43:31.495Z,17.10
2018-04-30T07:44:31.535Z,16.20
2018-04-30T07:45:31.496Z,15.60
2018-04-30T07:46:31.509Z,15.30
2018-04-30T07:47:31.557Z,15.60
2018-04-30T07:48:31.546Z,14.60
2018-04-30T07:49:31.507Z,13.80
2018-04-30T07:50:31.519Z,12.60
2018-04-30T07:51:31.514Z,11.80
2018-04-30T07:52:31.831Z,11.80
2018-04-30T07:53:31.516Z,11.20
2018-04-30T07:54:31.589Z,11.40
2018-04-30T07:55:31.524Z,11.90
2018-04-30T07:56:31.533Z,9.80
2018-04-30T07:57:31.551Z,10.30
2018-04-30T07:58:31.582Z,9.60
2018-04-30T07:59:31.541Z,10.00
2018-04-30T08:00:31.569Z,9.20
2018-04-30T08:01:31.567Z,9.30
2018-04-30T08:02:31.540Z,8.90
2018-04-30T08:03:31.550Z,9.00
2018-04-30T08:04:31.556Z,8.50
2018-04-30T08:05:31.577Z,8.80
2018-04-30T08:06:31.555Z,8.00
2018-04-30T08:07:31.545Z,8.80
2018-04-30T08:08:31.691Z,8.60
2018-04-30T08:09:31.587Z,8.50
2018-04-30T08:10:31.717Z,7.50
2018-04-30T08:11:31.595Z,8.00
2018-04-30T08:12:31.603Z,7.30
2018-04-30T08:13:31.612Z,7.50
2018-04-30T08:14:31.683Z,7.60
2018-04-30T08:15:31.639Z,7.70
2018-04-30T08:16:31.605Z,7.60
2018-04-30T08:17:31.606Z,6.80
2018-04-30T08:18:31.572Z,6.70
2018-04-30T08:19:31.597Z,6.40
2018-04-30T08:20:31.631Z,6.20
2018-04-30T08:21:31.675Z,6.00
2018-04-30T08:22:31.760Z,5.90
2018-04-30T08:23:31.646Z,5.40
2018-04-30T08:24:31.682Z,5.10
2018-04-30T08:25:32.654Z,5.60
2018-04-30T08:26:31.645Z,5.30
2018-04-30T08:27:31.616Z,6.10
2018-04-30T08:28:31.602Z,6.00
2018-04-30T08:29:31.610Z,6.10
2018-04-30T08:30:31.619Z,6.30
2018-04-30T08:31:31.636Z,6.50
2018-04-30T08:32:31.630Z,6.60
2018-04-30T08:33:31.642Z,6.20
2018-04-30T08:34:31.650Z,6.90
2018-04-30T08:35:33.386Z,6.70
2018-04-30T08:36:31.663Z,7.10
2018-04-30T08:37:32.456Z,7.50
2018-04-30T08:38:31.642Z,7.50
2018-04-30T08:39:31.780Z,7.30
2018-04-30T08:40:31.675Z,7.40
2018-04-30T08:41:31.655Z,7.20
2018-04-30T08:42:31.647Z,8.60
2018-04-30T08:43:31.661Z,8.30
2018-04-30T08:44:31.652Z,8.40
2018-04-30T08:45:31.654Z,8.40
2018-04-30T08:46:31.698Z,7.30
2018-04-30T08:47:31.668Z,7.50
2018-04-30T08:48:32.460Z,8.40
2018-04-30T08:49:31.777Z,8.20
2018-04-30T08:50:31.744Z,7.30
2018-04-30T08:51:31.659Z,7.60
2018-04-30T08:52:31.663Z,8.50
2018-04-30T08:53:31.680Z,8.10
2018-04-30T08:54:31.646Z,8.60
2018-04-30T08:55:31.706Z,8.30
2018-04-30T08:56:31.697Z,8.90
2018-04-30T08:57:31.676Z,9.60
2018-04-30T08:58:31.707Z,7.80
2018-04-30T08:59:31.702Z,5.80
2018-04-30T09:00:31.710Z,4.60
2018-04-30T09:01:31.671Z,4.20
2018-04-30T09:02:31.715Z,4.30
2018-04-30T09:03:31.697Z,3.60
2018-04-30T09:04:31.728Z,3.00
2018-04-30T09:05:31.701Z,3.10
2018-04-30T09:06:31.704Z,2.80
2018-04-30T09:07:31.695Z,2.50
2018-04-30T09:08:31.704Z,2.40
2018-04-30T09:09:31.699Z,3.00
2018-04-30T09:10:31.707Z,2.50
2018-04-30T09:11:31.729Z,2.70
2018-04-30T09:12:31.812Z,2.60
2018-04-30T09:13:31.725Z,2.50
2018-04-30T09:14:31.720Z,2.30
2018-04-30T09:15:31.753Z,2.10
2018-04-30T09:16:31.715Z,2.30
2018-04-30T09:17:31.721Z,2.10
2018-04-30T09:18:31.737Z,1.80
2018-04-30T09:19:31.741Z,1.90
2018-04-30T09:20:31.839Z,1.90
2018-04-30T09:21:31.730Z,1.90
2018-04-30T09:22:31.751Z,2.00
2018-04-30T09:23:31.764Z,2.10
2018-04-30T09:24:31.730Z,2.00
2018-04-30T09:25:31.736Z,2.30
2018-04-30T09:26:31.741Z,2.20
2018-04-30T09:27:31.751Z,2.40
2018-04-30T09:28:31.738Z,2.40
2018-04-30T09:29:31.749Z,2.40
2018-04-30T09:30:31.763Z,2.40
2018-04-30T09:31:31.739Z,4.30
2018-04-30T09:32:31.768Z,6.80
2018-04-30T09:33:31.762Z,4.60
2018-04-30T09:34:31.759Z,3.20
2018-04-30T09:35:31.754Z,2.30
2018-04-30T09:36:31.748Z,2.30
2018-04-30T09:37:31.774Z,2.30
2018-04-30T09:38:31.797Z,2.40
2018-04-30T09:39:31.997Z,2.50
2018-04-30T09:40:31.814Z,2.40
2018-04-30T09:41:31.822Z,2.60
2018-04-30T09:42:31.841Z,3.80
2018-04-30T09:43:31.876Z,3.50
2018-04-30T09:44:31.810Z,2.50
2018-04-30T09:45:32.056Z,2.60
2018-04-30T09:46:32.558Z,2.40
2018-04-30T09:47:31.907Z,2.70
2018-04-30T09:48:31.789Z,2.80
2018-04-30T09:49:31.911Z,2.60
2018-04-30T09:50:31.828Z,2.50
2018-04-30T09:51:31.852Z,2.80
2018-04-30T09:52:31.853Z,2.70
2018-04-30T09:53:31.808Z,3.00
2018-04-30T09:54:31.852Z,2.70
2018-04-30T09:55:31.917Z,3.10
2018-04-30T09:56:31.916Z,3.00
2018-04-30T09:57:31.838Z,3.20
2018-04-30T09:58:31.814Z,2.80
2018-04-30T09:59:31.811Z,3.00
2018-04-30T10:00:31.833Z,3.30
2018-04-30T10:01:31.927Z,2.90
2018-04-30T10:02:31.820Z,2.90
2018-04-30T10:03:31.847Z,2.90
2018-04-30T10:04:31.835Z,3.00
2018-04-30T10:05:31.852Z,3.70
2018-04-30T10:06:31.838Z,3.70
2018-04-30T10:07:31.946Z,3.30
2018-04-30T10:08:32.409Z,3.50
2018-04-30T10:09:31.874Z,3.30
2018-04-30T10:10:31.900Z,3.70
2018-04-30T10:11:31.878Z,3.40
2018-04-30T10:12:31.847Z,3.40
2018-04-30T10:13:31.854Z,3.60
2018-04-30T10:14:31.851Z,3.20
2018-04-30T10:15:31.867Z,3.50
2018-04-30T10:16:31.858Z,3.40
2018-04-30T10:17:31.855Z,3.50
2018-04-30T10:18:31.862Z,4.00
2018-04-30T10:19:31.859Z,3.40
2018-04-30T10:20:31.929Z,4.10
2018-04-30T10:21:31.936Z,4.10
2018-04-30T10:22:31.883Z,4.50
2018-04-30T10:23:31.952Z,4.20
2018-04-30T10:24:31.890Z,3.50
2018-04-30T10:25:31.886Z,4.00
2018-04-30T10:26:31.898Z,3.70
2018-04-30T10:27:31.939Z,3.60
2018-04-30T10:28:31.972Z,4.10
2018-04-30T10:29:31.886Z,3.50
2018-04-30T10:30:32.414Z,4.30
2018-04-30T10:31:32.014Z,3.60
2018-04-30T10:32:31.911Z,3.60
2018-04-30T10:33:31.906Z,4.10
2018-04-30T10:34:31.918Z,4.00
2018-04-30T10:35:31.892Z,3.60
2018-04-30T10:36:31.901Z,3.40
2018-04-30T10:37:31.899Z,3.40
2018-04-30T10:38:31.901Z,3.40
2018-04-30T10:39:31.947Z,3.50
2018-04-30T10:40:31.902Z,3.30
2018-04-30T10:41:31.927Z,3.80
2018-04-30T10:42:31.929Z,3.70
2018-04-30T10:43:32.049Z,3.30
2018-04-30T10:44:31.928Z,3.00
2018-04-30T10:45:31.924Z,3.00
2018-04-30T10:46:31.928Z,3.10
2018-04-30T10:47:31.931Z,3.10
2018-04-30T10:48:32.014Z,3.20
2018-04-30T10:49:31.945Z,2.80
2018-04-30T10:50:31.939Z,3.10
2018-04-30T10:51:31.963Z,2.90
2018-04-30T10:52:31.940Z,3.40
2018-04-30T10:53:31.953Z,3.00
2018-04-30T10:54:31.994Z,2.60
2018-04-30T10:55:31.948Z,3.00
2018-04-30T10:56:31.964Z,2.90
2018-04-30T10:57:31.975Z,2.80
2018-04-30T10:58:31.977Z,2.80
2018-04-30T10:59:31.993Z,2.70
2018-04-30T11:02:06.079Z,2.90
2018-04-30T22:00:59.812Z,1.10
2018-04-30T22:02:14.343Z,1.20
2018-04-30T22:02:59.369Z,1.40
2018-04-30T22:03:59.362Z,1.30
2018-04-30T22:10:44.624Z,1.50
2018-04-30T22:11:43.366Z,1.50
2018-04-30T22:12:40.024Z,1.60
2018-04-30T22:13:40.141Z,1.50
2018-04-30T22:14:40.206Z,1.40
2018-04-30T22:15:40.111Z,1.50
2018-04-30T22:16:40.265Z,1.70
2018-04-30T22:17:40.165Z,1.50
2018-04-30T22:18:40.224Z,1.30
2018-04-30T22:19:40.068Z,1.60
2018-04-30T22:20:40.083Z,1.50
2018-04-30T22:21:40.070Z,1.70
2018-04-30T22:22:40.085Z,1.60
2018-04-30T22:23:40.097Z,1.80
2018-04-30T22:24:40.107Z,1.70
2018-04-30T22:25:40.163Z,1.60
2018-04-30T22:26:40.085Z,1.90
2018-04-30T22:27:40.013Z,1.80
2018-04-30T22:28:40.086Z,1.90
2018-04-30T22:29:40.204Z,2.00
2018-04-30T22:30:40.126Z,2.00
2018-04-30T22:31:40.023Z,2.00
2018-04-30T22:32:40.198Z,1.90
2018-04-30T22:33:40.059Z,2.10
2018-04-30T22:34:40.101Z,2.30
2018-04-30T22:35:40.044Z,2.30
2018-04-30T22:36:40.144Z,2.60
2018-04-30T22:37:40.169Z,2.10
2018-04-30T22:38:40.884Z,2.30
2018-04-30T22:39:40.124Z,2.50
2018-04-30T22:40:40.174Z,2.70
2018-04-30T22:41:40.143Z,2.30
2018-04-30T22:42:40.190Z,2.60
2018-04-30T22:43:40.110Z,2.70
2018-04-30T22:44:40.117Z,2.60
2018-04-30T22:45:40.097Z,2.50
2018-04-30T22:46:40.281Z,2.60
2018-04-30T22:47:40.042Z,2.60
2018-04-30T22:48:40.145Z,3.00
2018-04-30T22:49:40.100Z,2.50
2018-04-30T22:50:40.148Z,2.80
2018-04-30T22:51:40.062Z,2.70
2018-04-30T22:52:40.240Z,2.60
2018-04-30T22:53:40.137Z,2.80
2018-04-30T22:54:40.100Z,2.90
2018-04-30T22:55:40.103Z,2.80
2018-04-30T22:56:40.128Z,2.80
2018-04-30T22:57:40.030Z,2.90
2018-04-30T22:58:40.060Z,2.80
2018-04-30T22:59:40.087Z,2.70
2018-04-30T23:00:40.080Z,2.40
2018-04-30T23:01:40.072Z,2.50
2018-04-30T23:02:40.359Z,2.50
2018-04-30T23:03:40.183Z,2.30
2018-04-30T23:04:40.096Z,2.50
2018-04-30T23:05:40.064Z,2.40
2018-04-30T23:06:40.261Z,2.30
2018-04-30T23:07:40.206Z,2.40
2018-04-30T23:08:40.159Z,2.30
2018-04-30T23:09:40.451Z,2.50
2018-04-30T23:10:43.059Z,2.10
2018-04-30T23:11:40.145Z,2.10
2018-04-30T23:12:40.101Z,2.10
2018-04-30T23:13:40.367Z,2.40
2018-04-30T23:14:40.266Z,2.10
2018-04-30T23:15:40.564Z,2.20
2018-04-30T23:16:40.330Z,2.20
2018-04-30T23:17:40.117Z,2.00
2018-04-30T23:18:40.134Z,2.00
2018-04-30T23:19:40.048Z,2.00
2018-04-30T23:20:40.110Z,2.20
2018-04-30T23:21:40.158Z,2.00
2018-04-30T23:22:40.240Z,2.10
2018-04-30T23:23:40.250Z,2.30
2018-04-30T23:24:40.231Z,2.10
2018-04-30T23:25:40.087Z,2.40
2018-04-30T23:26:40.175Z,1.90
2018-04-30T23:27:40.138Z,2.30
2018-04-30T23:28:40.147Z,2.00
2018-04-30T23:29:40.216Z,2.00
2018-04-30T23:30:40.266Z,2.30
2018-04-30T23:31:40.356Z,2.40
2018-04-30T23:32:40.898Z,2.30
2018-04-30T23:33:40.184Z,2.20
2018-04-30T23:34:40.216Z,2.40
2018-04-30T23:35:40.937Z,2.30
2018-04-30T23:36:40.155Z,2.30
2018-04-30T23:37:40.149Z,2.30
2018-04-30T23:38:40.259Z,2.10
2018-04-30T23:39:40.116Z,2.00
2018-04-30T23:40:40.238Z,2.30
2018-04-30T23:41:40.280Z,2.00
2018-04-30T23:42:40.286Z,2.00
2018-04-30T23:43:40.111Z,2.10
2018-04-30T23:44:40.218Z,2.10
2018-04-30T23:45:40.180Z,2.10
2018-04-30T23:46:40.172Z,2.10
2018-04-30T23:47:40.190Z,2.10
2018-04-30T23:48:40.270Z,2.20
2018-04-30T23:49:40.108Z,2.00
2018-04-30T23:50:40.068Z,1.60
2018-04-30T23:51:40.177Z,1.80
2018-04-30T23:52:40.252Z,1.70
2018-04-30T23:53:40.119Z,1.90
2018-04-30T23:54:40.541Z,1.50
2018-04-30T23:55:40.145Z,1.70
2018-04-30T23:56:40.204Z,1.80
2018-04-30T23:57:40.140Z,1.70
2018-04-30T23:58:40.266Z,1.60
2018-04-30T23:59:40.113Z,1.70
